Time;durP1;ratioP1;P1;durP2;ratioP2;P2;SDS_P1;SDS_P2;PMS_P1;PMS_P2;Temp;Humidity;BMP_temperature;BMP_pressure;BME280_temperature;BME280_humidity;BME280_pressure;Samples;Min_cycle;Max_cycle;Signal;HPM_P1;HPM_P2
2021/10/31 00:02:04;;;;;;;8.93;1.92;;;;;;;9.61;100.00;99275.97;4870065;29;20033;-76
2021/10/31 00:04:30;;;;;;;5.60;1.55;;;;;;;9.63;100.00;99267.34;4864290;29;20032;-76
2021/10/31 00:06:55;;;;;;;6.53;1.77;;;;;;;9.63;100.00;99261.78;4879016;29;20040;-76
2021/10/31 00:09:21;;;;;;;6.55;1.55;;;;;;;9.61;100.00;99256.56;4868321;29;20105;-76
2021/10/31 00:11:46;;;;;;;5.25;1.60;;;;;;;9.61;100.00;99244.66;4874812;29;20037;-75
2021/10/31 00:14:12;;;;;;;7.18;1.85;;;;;;;9.61;100.00;99248.25;4879797;29;20041;-75
2021/10/31 00:16:37;;;;;;;9.25;1.70;;;;;;;9.61;100.00;99239.94;4866293;29;20033;-76
2021/10/31 00:19:03;;;;;;;5.93;1.50;;;;;;;9.62;100.00;99241.56;4862419;29;20032;-76
2021/10/31 00:21:28;;;;;;;9.27;1.80;;;;;;;9.60;100.00;99241.06;4877797;29;20033;-76
2021/10/31 00:23:54;;;;;;;10.98;1.58;;;;;;;9.60;100.00;99235.53;4876103;29;20033;-76
2021/10/31 00:26:20;;;;;;;9.15;2.03;;;;;;;9.62;100.00;99236.03;4871407;29;20494;-76
2021/10/31 00:28:45;;;;;;;8.75;1.73;;;;;;;9.61;100.00;99245.50;4869678;29;20033;-76
2021/10/31 00:31:11;;;;;;;9.65;1.75;;;;;;;9.62;100.00;99238.78;4865187;29;20041;-76
2021/10/31 00:33:37;;;;;;;7.10;1.70;;;;;;;9.65;100.00;99244.84;4875814;29;20037;-76
2021/10/31 00:36:04;;;;;;;4.53;1.52;;;;;;;9.67;100.00;99237.00;4878546;29;20063;-76
2021/10/31 00:38:29;;;;;;;14.85;1.98;;;;;;;9.62;100.00;99236.03;4879272;29;20083;-76
2021/10/31 00:40:55;;;;;;;6.47;1.70;;;;;;;9.61;100.00;99226.09;4871117;29;20041;-76
2021/10/31 00:43:21;;;;;;;4.90;1.52;;;;;;;9.65;100.00;99228.22;4846327;29;20028;-76
2021/10/31 00:45:46;;;;;;;7.40;1.42;;;;;;;9.60;100.00;99221.66;4871166;29;20030;-76
2021/10/31 00:48:12;;;;;;;6.88;1.80;;;;;;;9.62;100.00;99222.16;4867691;29;20038;-76
2021/10/31 00:50:37;;;;;;;6.53;1.73;;;;;;;9.61;100.00;99231.63;4870878;29;20037;-76
2021/10/31 00:53:03;;;;;;;8.32;1.63;;;;;;;9.60;100.00;99224.44;4854500;29;20030;-76
2021/10/31 00:55:29;;;;;;;5.70;1.30;;;;;;;9.60;100.00;99212.53;4855433;29;20055;-76
2021/10/31 00:57:55;;;;;;;4.28;1.50;;;;;;;9.58;100.00;99212.88;4872782;29;20033;-76
2021/10/31 01:00:20;;;;;;;5.38;1.23;;;;;;;9.58;100.00;99204.56;4880224;29;20582;-76
2021/10/31 01:02:45;;;;;;;5.63;1.48;;;;;;;9.58;100.00;99198.16;4877770;29;20029;-76
2021/10/31 01:05:13;;;;;;;8.82;1.75;;;;;;;9.57;100.00;99186.25;4847379;29;20032;-76
2021/10/31 01:08:14;;;;;;;6.88;1.50;;;;;;;9.55;100.00;99185.75;4878991;29;20385;-76
2021/10/31 01:11:05;;;;;;;8.60;1.50;;;;;;;9.55;100.00;99176.63;4874974;29;20041;-76
2021/10/31 01:13:31;;;;;;;8.63;1.67;;;;;;;9.56;100.00;99165.25;4860225;29;20116;-76
2021/10/31 01:16:11;;;;;;;6.30;1.50;;;;;;;9.54;100.00;99161.97;4873580;29;20053;-76
2021/10/31 01:18:55;;;;;;;9.90;1.40;;;;;;;9.54;100.00;99153.66;4869545;29;20037;-76
2021/10/31 01:21:35;;;;;;;6.00;1.10;;;;;;;9.54;100.00;99156.41;4867947;29;20033;-76
2021/10/31 01:24:10;;;;;;;7.40;1.33;;;;;;;9.54;100.00;99147.28;4867055;29;20225;-76
2021/10/31 01:26:53;;;;;;;4.50;1.20;;;;;;;9.52;100.00;99142.06;4872290;29;20033;-76
2021/10/31 01:29:42;;;;;;;7.70;1.00;;;;;;;9.52;100.00;99139.28;4878987;29;20165;-76
2021/10/31 01:32:10;;;;;;;5.22;1.30;;;;;;;9.53;100.00;99138.16;4872815;29;20041;-76
2021/10/31 01:35:11;;;;;;;7.20;1.13;;;;;;;9.55;100.00;99135.88;4871551;29;20101;-76
2021/10/31 01:37:52;;;;;;;9.02;1.23;;;;;;;9.54;100.00;99137.03;4830386;29;20050;-76
2021/10/31 01:40:36;;;;;;;6.70;1.27;;;;;;;9.56;100.00;99133.94;4826897;29;20089;-76
2021/10/31 01:43:22;;;;;;;6.40;1.15;;;;;;;9.57;100.00;99128.06;4827411;29;20030;-76
2021/10/31 01:45:58;;;;;;;7.22;1.60;;;;;;;9.57;100.00;99122.50;4834968;29;20518;-76
2021/10/31 01:48:36;;;;;;;8.18;1.00;;;;;;;9.58;100.00;99118.63;4838984;29;20461;-76
2021/10/31 01:51:05;;;;;;;4.88;1.10;;;;;;;9.61;100.00;99115.22;4825667;29;20042;-76
2021/10/31 01:54:05;;;;;;;7.53;1.23;;;;;;;9.63;100.00;99114.88;4834348;29;20113;-76
2021/10/31 01:56:33;;;;;;;8.00;0.98;;;;;;;9.63;100.00;99110.13;4821386;29;20170;-76
2021/10/31 01:59:03;;;;;;;4.45;1.00;;;;;;;9.66;100.00;99107.88;4824756;29;20045;-76
2021/10/31 02:01:30;;;;;;;4.75;1.02;;;;;;;9.66;100.00;99097.59;4835697;29;20118;-76
2021/10/31 02:03:58;;;;;;;4.70;0.90;;;;;;;9.67;100.00;99095.63;4835482;29;20098;-76
2021/10/31 02:06:24;;;;;;;7.40;1.30;;;;;;;9.69;100.00;99096.13;4811485;29;20061;-76
2021/10/31 02:08:50;;;;;;;4.80;0.90;;;;;;;9.71;100.00;99082.78;4828624;29;20500;-76
2021/10/31 02:11:16;;;;;;;10.27;2.17;;;;;;;9.68;100.00;99075.09;4831074;29;20076;-76
2021/10/31 02:13:43;;;;;;;4.75;1.20;;;;;;;9.70;100.00;99056.19;4833763;29;20042;-76
2021/10/31 02:16:08;;;;;;;6.13;1.17;;;;;;;9.68;100.00;99050.97;4837439;29;20056;-76
2021/10/31 02:18:34;;;;;;;3.72;1.13;;;;;;;9.73;100.00;99050.00;4809772;29;20037;-76
2021/10/31 02:20:59;;;;;;;5.22;1.30;;;;;;;9.75;100.00;99047.69;4809331;29;20030;-76
2021/10/31 02:23:25;;;;;;;6.45;1.00;;;;;;;9.76;100.00;99046.59;4842760;29;20154;-76
2021/10/31 02:25:51;;;;;;;8.45;1.08;;;;;;;9.78;100.00;99047.88;4831760;29;20117;-75
2021/10/31 02:28:17;;;;;;;2.90;1.00;;;;;;;9.80;100.00;99031.72;4834643;29;20045;-75
2021/10/31 02:30:43;;;;;;;6.15;0.77;;;;;;;9.81;100.00;99038.13;4830696;29;20034;-76
2021/10/31 02:33:08;;;;;;;8.98;1.20;;;;;;;9.82;100.00;99034.19;4823191;29;20056;-76
2021/10/31 02:35:34;;;;;;;9.30;1.30;;;;;;;9.86;100.00;99024.06;4849303;29;20100;-76
2021/10/31 02:37:59;;;;;;;9.85;1.30;;;;;;;9.89;100.00;99017.91;4864419;29;20037;-76
2021/10/31 02:40:25;;;;;;;4.40;1.08;;;;;;;9.92;100.00;99005.31;4858937;29;20444;-76
2021/10/31 02:42:51;;;;;;;7.78;0.80;;;;;;;9.93;100.00;98987.53;4857187;29;20422;-76
2021/10/31 02:45:16;;;;;;;10.30;1.63;;;;;;;9.97;100.00;98980.19;4863660;29;20102;-76
2021/10/31 02:47:51;;;;;;;9.00;1.25;;;;;;;9.98;100.00;98977.09;4845686;29;20493;-76
2021/10/31 02:50:19;;;;;;;7.47;1.45;;;;;;;9.99;100.00;98984.25;4874322;29;20048;-76
2021/10/31 02:53:02;;;;;;;4.95;0.85;;;;;;;9.95;100.00;98994.41;4835531;29;20041;-76
2021/10/31 02:55:49;;;;;;;6.78;1.30;;;;;;;10.02;100.00;98983.59;4865877;29;20037;-76
2021/10/31 02:58:36;;;;;;;6.32;1.02;;;;;;;10.05;100.00;98987.69;4871761;29;20052;-76
2021/10/31 03:01:03;;;;;;;9.35;1.00;;;;;;;10.06;100.00;98997.66;4875689;29;20097;-76
2021/10/31 03:03:32;;;;;;;7.55;1.05;;;;;;;10.09;100.00;98993.41;4866196;29;20030;-76
2021/10/31 03:05:58;;;;;;;6.47;1.00;;;;;;;10.10;100.00;98993.06;4861753;29;20036;-76
2021/10/31 03:08:28;;;;;;;5.30;0.82;;;;;;;10.14;100.00;98994.06;4875211;29;20491;-76
2021/10/31 03:10:57;;;;;;;7.10;1.10;;;;;;;10.13;100.00;98986.06;4869664;29;20048;-76
2021/10/31 03:13:23;;;;;;;6.95;1.23;;;;;;;10.17;100.00;98987.84;4879773;29;20045;-76
2021/10/31 03:15:48;;;;;;;9.07;1.60;;;;;;;10.20;100.00;98986.38;4876431;29;20065;-76
2021/10/31 03:18:14;;;;;;;6.03;1.10;;;;;;;10.22;100.00;98982.13;4863418;29;20060;-76
2021/10/31 03:20:39;;;;;;;6.45;1.15;;;;;;;10.23;100.00;98986.53;4869407;29;20045;-76
2021/10/31 03:23:05;;;;;;;6.15;1.25;;;;;;;10.26;100.00;98973.97;4878224;29;20025;-76
2021/10/31 03:25:31;;;;;;;7.65;1.35;;;;;;;10.30;100.00;98969.41;4870734;29;20037;-76
2021/10/31 03:27:56;;;;;;;10.32;1.20;;;;;;;10.31;100.00;98956.34;4875213;29;20068;-76
2021/10/31 03:30:21;;;;;;;5.57;1.10;;;;;;;10.34;100.00;98950.16;4876083;29;20029;-76
2021/10/31 03:32:48;;;;;;;11.52;1.42;;;;;;;10.37;100.00;98944.75;4876848;29;20029;-76
2021/10/31 03:35:13;;;;;;;6.97;1.17;;;;;;;10.39;100.00;98950.78;4846317;29;20039;-76
2021/10/31 03:37:39;;;;;;;14.50;1.58;;;;;;;10.42;100.00;98927.94;4875835;29;20487;-76
2021/10/31 03:40:05;;;;;;;8.32;1.15;;;;;;;10.47;100.00;98918.59;4862028;29;20033;-76
2021/10/31 03:42:30;;;;;;;8.05;1.40;;;;;;;10.53;100.00;98908.97;4868231;29;20069;-76
2021/10/31 03:44:57;;;;;;;10.70;1.55;;;;;;;10.54;100.00;98893.09;4856976;29;20041;-76
2021/10/31 03:47:25;;;;;;;6.97;1.50;;;;;;;10.56;100.00;98894.41;4870177;29;20033;-76
2021/10/31 03:49:51;;;;;;;9.68;1.27;;;;;;;10.58;100.00;98878.22;4878484;29;20048;-76
2021/10/31 03:52:17;;;;;;;9.77;1.88;;;;;;;10.61;100.00;98860.06;4871389;29;20116;-76
2021/10/31 03:54:42;;;;;;;9.95;1.40;;;;;;;10.63;100.00;98852.22;4879236;29;20454;-75
2021/10/31 03:57:08;;;;;;;10.65;1.92;;;;;;;10.64;100.00;98854.69;4861519;29;20033;-76
2021/10/31 03:59:33;;;;;;;10.20;1.80;;;;;;;10.68;100.00;98847.31;4861439;29;20044;-76
2021/10/31 04:01:59;;;;;;;5.57;1.45;;;;;;;10.68;100.00;98850.06;4878694;29;20033;-76
2021/10/31 04:04:24;;;;;;;12.40;1.67;;;;;;;10.71;100.00;98840.28;4867940;29;20034;-76
2021/10/31 04:06:50;;;;;;;14.55;2.10;;;;;;;10.73;100.00;98821.31;4874323;29;20048;-76
2021/10/31 04:09:15;;;;;;;13.65;2.13;;;;;;;10.73;100.00;98819.34;4840586;29;20044;-75
2021/10/31 04:11:41;;;;;;;8.63;1.83;;;;;;;10.77;100.00;98833.38;4864770;29;20542;-75
2021/10/31 04:14:06;;;;;;;9.15;2.00;;;;;;;10.77;100.00;98836.13;4874455;29;20543;-76
2021/10/31 04:16:32;;;;;;;9.90;2.08;;;;;;;10.80;100.00;98846.56;4879972;29;20680;-76
2021/10/31 04:18:57;;;;;;;9.93;1.63;;;;;;;10.82;100.00;98835.94;4868578;29;20033;-76
2021/10/31 04:21:23;;;;;;;9.52;1.65;;;;;;;10.83;100.00;98834.78;4870444;29;20029;-76
2021/10/31 04:23:48;;;;;;;10.45;1.50;;;;;;;10.87;100.00;98830.22;4863417;29;20033;-76
2021/10/31 04:26:14;;;;;;;9.43;2.00;;;;;;;10.89;100.00;98829.84;4867603;29;20045;-76
2021/10/31 04:28:39;;;;;;;11.85;2.35;;;;;;;10.90;100.00;98828.72;4872335;29;20033;-76
2021/10/31 04:31:05;;;;;;;5.80;1.55;;;;;;;10.92;100.00;98830.00;4862859;29;20041;-76
2021/10/31 04:33:30;;;;;;;9.77;1.90;;;;;;;10.96;100.00;98835.69;4862959;29;20417;-76
2021/10/31 04:35:57;;;;;;;12.88;2.13;;;;;;;10.98;100.00;98827.00;4873872;29;20414;-76
2021/10/31 04:38:26;;;;;;;10.43;1.77;;;;;;;11.00;100.00;98799.72;4881036;29;20394;-75
2021/10/31 04:40:51;;;;;;;12.07;1.80;;;;;;;11.03;100.00;98804.59;4866309;29;20053;-76
2021/10/31 04:43:17;;;;;;;10.93;1.98;;;;;;;11.03;100.00;98804.59;4871903;29;20439;-76
2021/10/31 04:45:43;;;;;;;11.55;1.73;;;;;;;11.04;100.00;98809.00;4832854;29;20557;-75
2021/10/31 04:48:09;;;;;;;11.35;1.55;;;;;;;11.05;100.00;98807.84;4862642;29;20037;-76
2021/10/31 04:50:35;;;;;;;7.35;1.60;;;;;;;11.07;100.00;98811.13;4859962;29;20033;-77
2021/10/31 04:53:01;;;;;;;7.72;1.48;;;;;;;11.12;100.00;98794.25;4870047;29;20043;-76
2021/10/31 04:55:26;;;;;;;5.57;1.20;;;;;;;11.13;100.00;98799.44;4866201;29;20070;-76
2021/10/31 04:57:52;;;;;;;12.20;1.60;;;;;;;11.16;100.00;98796.00;4872565;29;20070;-76
2021/10/31 05:00:18;;;;;;;10.15;1.42;;;;;;;11.18;100.00;98795.66;4870658;29;20036;-77
2021/10/31 05:02:43;;;;;;;7.53;1.52;;;;;;;11.19;100.00;98802.84;4864342;29;20634;-76
2021/10/31 05:05:09;;;;;;;10.82;1.50;;;;;;;11.21;100.00;98792.19;4856071;29;20032;-76
2021/10/31 05:07:34;;;;;;;11.23;1.40;;;;;;;11.21;100.00;98788.63;4872956;29;20037;-76
2021/10/31 05:10:00;;;;;;;6.32;1.60;;;;;;;11.21;100.00;98791.38;4873108;29;20068;-76
2021/10/31 05:12:27;;;;;;;7.45;1.05;;;;;;;11.22;100.00;98777.13;4868913;29;20033;-75
2021/10/31 05:14:52;;;;;;;7.68;1.48;;;;;;;11.23;100.00;98776.00;4876248;29;20034;-76
2021/10/31 05:17:18;;;;;;;8.40;1.52;;;;;;;11.24;100.00;98769.28;4869838;29;20041;-76
2021/10/31 05:19:44;;;;;;;11.30;1.50;;;;;;;11.25;100.00;98751.44;4861146;29;20041;-76
2021/10/31 05:22:09;;;;;;;9.57;1.50;;;;;;;11.26;100.00;98746.72;4874625;29;20041;-76
2021/10/31 05:24:35;;;;;;;7.10;1.13;;;;;;;11.28;100.00;98750.78;4844024;29;20037;-76
2021/10/31 05:27:00;;;;;;;9.88;1.23;;;;;;;11.30;100.00;98747.66;4865956;29;20037;-75
2021/10/31 05:29:26;;;;;;;14.05;1.65;;;;;;;11.31;100.00;98744.53;4873720;29;20041;-76
2021/10/31 05:31:51;;;;;;;6.30;1.50;;;;;;;11.32;100.00;98740.59;4878910;29;20033;-76
2021/10/31 05:34:17;;;;;;;9.80;1.20;;;;;;;11.32;100.00;98718.38;4872515;29;20037;-76
2021/10/31 05:36:43;;;;;;;10.10;1.38;;;;;;;11.32;100.00;98723.94;4872947;29;20118;-76
2021/10/31 05:39:08;;;;;;;10.05;1.35;;;;;;;11.33;100.00;98714.41;4833317;29;20026;-76
2021/10/31 05:41:34;;;;;;;14.02;1.67;;;;;;;11.33;100.00;98708.88;4867620;29;20514;-76
2021/10/31 05:44:00;;;;;;;9.82;1.30;;;;;;;11.35;100.00;98712.13;4869682;29;20058;-76
2021/10/31 05:46:26;;;;;;;11.05;1.30;;;;;;;11.36;100.00;98701.81;4868544;29;20029;-76
2021/10/31 05:48:52;;;;;;;11.13;1.80;;;;;;;11.35;100.00;98689.88;4864060;29;20550;-76
2021/10/31 05:51:18;;;;;;;5.55;1.63;;;;;;;11.36;100.00;98683.16;4861327;29;20087;-75
2021/10/31 05:53:43;;;;;;;13.63;2.20;;;;;;;11.38;100.00;98664.19;4863112;29;20033;-76
2021/10/31 05:56:10;;;;;;;9.27;1.95;;;;;;;11.38;100.00;98661.41;4860781;29;20042;-75
2021/10/31 05:58:35;;;;;;;13.70;1.85;;;;;;;11.38;100.00;98644.72;4868777;29;20040;-76
2021/10/31 06:01:01;;;;;;;12.05;1.60;;;;;;;11.38;100.00;98644.72;4881377;29;20025;-76
2021/10/31 06:03:26;;;;;;;11.80;2.08;;;;;;;11.38;100.00;98653.06;4872384;29;20033;-76
2021/10/31 06:05:52;;;;;;;10.25;2.10;;;;;;;11.39;100.00;98653.88;4877744;29;20044;-76
2021/10/31 06:08:18;;;;;;;8.68;1.90;;;;;;;11.39;100.00;98657.50;4860344;29;20506;-76
2021/10/31 06:10:44;;;;;;;14.18;1.42;;;;;;;11.37;100.00;98657.00;4865417;29;20049;-76
2021/10/31 06:13:09;;;;;;;7.80;1.63;;;;;;;11.38;100.00;98650.28;4870289;29;20081;-76
2021/10/31 06:15:35;;;;;;;6.78;1.60;;;;;;;11.37;100.00;98656.22;4844942;29;20048;-76
2021/10/31 06:18:01;;;;;;;10.43;2.13;;;;;;;11.37;100.00;98661.75;4878580;29;20029;-76
2021/10/31 06:20:26;;;;;;;6.90;1.20;;;;;;;11.34;100.00;98649.38;4874100;29;20053;-76
2021/10/31 06:22:52;;;;;;;9.70;1.70;;;;;;;11.34;100.00;98637.44;4862104;29;20037;-76
2021/10/31 06:25:17;;;;;;;8.60;1.70;;;;;;;11.33;100.00;98611.59;4852363;29;20030;-76
2021/10/31 06:27:43;;;;;;;6.75;1.63;;;;;;;11.33;100.00;98619.94;4874217;29;20049;-76
2021/10/31 06:30:09;;;;;;;10.45;1.88;;;;;;;11.32;100.00;98612.75;4864392;29;20045;-75
2021/10/31 06:32:34;;;;;;;7.25;1.67;;;;;;;11.31;100.00;98611.16;4878712;29;20064;-76
2021/10/31 06:35:00;;;;;;;8.25;1.50;;;;;;;11.34;100.00;98604.91;4870152;29;20033;-75
2021/10/31 06:37:25;;;;;;;8.43;1.40;;;;;;;11.35;100.00;98600.94;4875613;29;20044;-75
2021/10/31 06:39:51;;;;;;;11.43;2.20;;;;;;;11.33;100.00;98608.81;4878233;29;20033;-76
2021/10/31 06:42:16;;;;;;;8.65;1.58;;;;;;;11.32;100.00;98609.97;4863482;29;20487;-76
2021/10/31 06:44:42;;;;;;;10.02;1.20;;;;;;;11.32;100.00;98595.28;4880394;29;20057;-76
2021/10/31 06:47:08;;;;;;;5.82;1.48;;;;;;;11.32;100.00;98606.41;4865829;29;20036;-76
2021/10/31 06:49:33;;;;;;;10.55;1.25;;;;;;;11.32;100.00;98581.38;4850181;29;20048;-76
2021/10/31 06:51:59;;;;;;;8.23;1.55;;;;;;;11.32;100.00;98561.94;4873046;29;20034;-76
2021/10/31 06:54:25;;;;;;;7.57;1.25;;;;;;;11.30;100.00;98520.59;4879075;29;20127;-76
2021/10/31 06:56:51;;;;;;;10.52;1.75;;;;;;;11.30;100.00;98492.78;4843043;29;20034;-76
2021/10/31 06:59:16;;;;;;;4.13;1.30;;;;;;;11.30;100.00;98478.91;4874919;29;20037;-76
2021/10/31 07:01:42;;;;;;;5.63;1.10;;;;;;;11.31;100.00;98461.09;4852909;29;20033;-75
2021/10/31 07:04:08;;;;;;;11.02;1.20;;;;;;;11.30;100.00;98465.00;4872260;29;20040;-76
2021/10/31 07:06:35;;;;;;;4.20;0.98;;;;;;;11.29;100.00;98482.84;4878168;29;20052;-75
2021/10/31 07:09:00;;;;;;;6.30;1.10;;;;;;;11.28;100.00;98495.13;4865845;29;20029;-76
2021/10/31 07:11:26;;;;;;;8.80;1.25;;;;;;;11.26;100.00;98479.97;4846420;29;20036;-76
2021/10/31 07:13:51;;;;;;;9.07;1.48;;;;;;;11.26;100.00;98468.84;4845905;29;20089;-76
2021/10/31 07:16:17;;;;;;;3.33;1.17;;;;;;;11.28;100.00;98458.19;4871054;29;20037;-76
2021/10/31 07:18:43;;;;;;;7.50;1.27;;;;;;;11.24;100.00;98449.75;4871499;29;20454;-76
2021/10/31 07:21:08;;;;;;;6.65;1.02;;;;;;;11.24;100.00;98458.06;4857237;29;20044;-76
2021/10/31 07:23:34;;;;;;;3.13;1.05;;;;;;;11.20;100.00;98443.28;4874595;29;20029;-76
2021/10/31 07:26:00;;;;;;;3.40;0.88;;;;;;;11.21;100.00;98444.06;4865041;29;20044;-76
2021/10/31 07:28:25;;;;;;;3.83;1.13;;;;;;;11.21;100.00;98455.19;4861922;29;20124;-76
2021/10/31 07:30:52;;;;;;;7.22;1.13;;;;;;;11.20;100.00;98443.28;4856273;29;20041;-76
2021/10/31 07:33:18;;;;;;;6.50;1.08;;;;;;;11.20;100.00;98457.16;4864737;29;20467;-76
2021/10/31 07:35:44;;;;;;;5.28;0.90;;;;;;;11.21;100.00;98432.97;4878997;29;20049;-76
2021/10/31 07:38:11;;;;;;;3.58;1.00;;;;;;;11.23;100.00;98472.28;4880850;29;20033;-76
2021/10/31 07:40:37;;;;;;;3.05;1.10;;;;;;;11.18;100.00;98473.38;4854664;29;20472;-76
2021/10/31 07:43:04;;;;;;;3.60;1.20;;;;;;;11.20;100.00;98465.50;4871639;29;20041;-75
2021/10/31 07:45:30;;;;;;;7.60;2.08;;;;;;;11.19;100.00;98498.00;4855108;29;20398;-76
2021/10/31 07:47:55;;;;;;;5.57;1.25;;;;;;;11.22;100.00;98482.59;4872802;29;20029;-76
2021/10/31 07:50:21;;;;;;;2.72;0.88;;;;;;;11.24;100.00;98499.75;4865085;29;20041;-76
2021/10/31 07:52:47;;;;;;;2.03;1.40;;;;;;;11.23;100.00;98492.59;4872597;29;20101;-76
2021/10/31 07:55:16;;;;;;;6.88;1.30;;;;;;;11.23;100.00;98498.13;4881391;29;20029;-75
2021/10/31 07:57:44;;;;;;;4.45;1.27;;;;;;;11.22;100.00;98485.38;4872859;29;20053;-76
2021/10/31 08:00:09;;;;;;;2.95;1.25;;;;;;;11.23;100.00;98475.06;4863930;29;20034;-76
2021/10/31 08:02:35;;;;;;;5.68;1.60;;;;;;;11.22;100.00;98492.91;4882208;29;20443;-76
2021/10/31 08:05:01;;;;;;;5.15;1.55;;;;;;;11.23;100.00;98484.25;4869348;29;20029;-75
2021/10/31 08:07:29;;;;;;;4.20;1.60;;;;;;;11.24;100.00;98488.63;4862075;29;20521;-76
2021/10/31 08:09:57;;;;;;;3.58;1.63;;;;;;;11.25;100.00;98484.69;4882550;29;20060;-76
2021/10/31 08:12:22;;;;;;;9.00;2.13;;;;;;;11.25;100.00;98484.69;4878195;29;20079;-76
2021/10/31 08:14:48;;;;;;;3.53;1.73;;;;;;;11.27;100.00;98490.72;4876033;29;20029;-76
2021/10/31 08:17:13;;;;;;;3.75;2.08;;;;;;;11.27;100.00;98503.81;4865524;29;20077;-76
2021/10/31 08:19:39;;;;;;;5.00;1.92;;;;;;;11.27;100.00;98504.59;4875331;29;20041;-76
2021/10/31 08:22:04;;;;;;;5.13;2.25;;;;;;;11.29;100.00;98512.63;4876120;29;20037;-76
2021/10/31 08:24:29;;;;;;;5.72;2.60;;;;;;;11.28;100.00;98510.97;4877563;29;20375;-76
2021/10/31 08:26:55;;;;;;;5.90;2.55;;;;;;;11.29;100.00;98537.63;4867514;29;20030;-75
2021/10/31 08:29:23;;;;;;;5.90;2.05;;;;;;;11.31;100.00;98547.25;4874436;29;20040;-76
2021/10/31 08:31:52;;;;;;;6.40;3.10;;;;;;;11.32;100.00;98526.63;4879279;29;20036;-76
2021/10/31 08:34:17;;;;;;;5.20;2.90;;;;;;;11.34;100.00;98556.84;4874152;29;20033;-76
2021/10/31 08:36:43;;;;;;;4.55;2.72;;;;;;;11.36;100.00;98552.53;4876999;29;20053;-77
2021/10/31 08:39:09;;;;;;;6.22;3.28;;;;;;;11.39;100.00;98529.63;4870785;29;20073;-76
2021/10/31 08:41:35;;;;;;;3.90;2.72;;;;;;;11.41;100.00;98532.06;4874921;29;20037;-76
2021/10/31 08:44:00;;;;;;;6.47;3.80;;;;;;;11.42;100.00;98522.53;4876166;29;20058;-77
2021/10/31 08:46:29;;;;;;;7.63;3.85;;;;;;;11.48;100.00;98520.34;4869282;29;20047;-76
2021/10/31 08:48:55;;;;;;;8.63;3.85;;;;;;;11.50;100.00;98518.84;4869992;29;20032;-76
2021/10/31 08:51:23;;;;;;;6.35;3.47;;;;;;;11.51;100.00;98537.16;4857340;29;20037;-76
2021/10/31 08:53:48;;;;;;;9.07;3.70;;;;;;;11.54;100.00;98535.66;4869291;29;20163;-77
2021/10/31 08:56:14;;;;;;;7.55;4.20;;;;;;;11.57;100.00;98555.22;4866802;29;20041;-76
2021/10/31 08:58:42;;;;;;;7.85;4.30;;;;;;;11.59;100.00;98555.69;4857206;29;20044;-77
2021/10/31 09:01:11;;;;;;;8.27;3.78;;;;;;;11.61;100.00;98560.88;4871868;29;20100;-76
2021/10/31 09:03:37;;;;;;;8.60;3.85;;;;;;;11.63;100.00;98620.53;4853344;29;20025;-76
2021/10/31 09:06:03;;;;;;;8.57;3.75;;;;;;;11.66;100.00;98638.50;4848260;29;20029;-76
2021/10/31 09:08:29;;;;;;;6.72;3.90;;;;;;;11.66;100.00;98623.78;4868080;29;20048;-76
2021/10/31 09:10:54;;;;;;;5.78;3.83;;;;;;;11.69;100.00;98604.44;4850016;29;20044;-76
2021/10/31 09:13:21;;;;;;;5.93;3.25;;;;;;;11.69;100.00;98612.78;4869064;29;20029;-76
2021/10/31 09:15:46;;;;;;;8.95;3.05;;;;;;;11.71;100.00;98618.81;4834775;29;20102;-77
2021/10/31 09:18:12;;;;;;;7.40;3.13;;;;;;;11.73;100.00;98627.63;4871831;29;20041;-76
2021/10/31 09:20:37;;;;;;;6.32;2.72;;;;;;;11.75;100.00;98614.16;4876094;29;20036;-77
2021/10/31 09:23:04;;;;;;;5.07;2.60;;;;;;;11.76;100.00;98596.34;4867897;29;20116;-76
2021/10/31 09:25:30;;;;;;;5.72;2.45;;;;;;;11.79;100.00;98587.31;4870441;29;20033;-76
2021/10/31 09:27:56;;;;;;;6.93;2.25;;;;;;;11.81;100.00;98584.16;4862632;29;20056;-76
2021/10/31 09:30:26;;;;;;;5.78;2.17;;;;;;;11.82;100.00;98581.03;4853816;29;20041;-76
2021/10/31 09:32:52;;;;;;;5.53;2.63;;;;;;;11.82;100.00;98572.69;4853423;29;20041;-76
2021/10/31 09:35:20;;;;;;;4.82;2.17;;;;;;;11.85;100.00;98568.41;4870275;29;20058;-76
2021/10/31 09:37:47;;;;;;;6.82;1.98;;;;;;;11.87;100.00;98577.25;4863778;29;20406;-77
2021/10/31 09:40:13;;;;;;;8.05;2.15;;;;;;;11.88;100.00;98587.19;4870363;29;20045;-76
2021/10/31 09:42:39;;;;;;;3.28;2.17;;;;;;;11.96;100.00;98585.47;4878859;29;20076;-76
2021/10/31 09:45:05;;;;;;;5.55;2.50;;;;;;;11.97;100.00;98598.19;4860490;29;20081;-76
2021/10/31 09:47:30;;;;;;;5.57;2.10;;;;;;;12.00;100.00;98597.50;4868187;29;20034;-76
2021/10/31 09:49:56;;;;;;;4.32;1.90;;;;;;;12.01;100.00;98585.22;4871929;29;20077;-76
2021/10/31 09:52:24;;;;;;;7.47;1.92;;;;;;;12.04;100.00;98590.09;4868005;29;20029;-76
2021/10/31 09:54:49;;;;;;;4.95;2.03;;;;;;;12.06;100.00;98585.78;4852912;29;20033;-76
2021/10/31 09:57:15;;;;;;;8.40;1.77;;;;;;;12.08;100.00;98599.34;4874902;29;20455;-76
2021/10/31 09:59:43;;;;;;;4.68;2.05;;;;;;;12.09;100.00;98584.28;4848343;29;20068;-76
2021/10/31 10:02:13;;;;;;;3.85;1.35;;;;;;;12.10;100.00;98599.81;4853013;29;20132;-76
2021/10/31 10:04:53;;;;;;;11.68;1.33;;;;;;;12.09;100.00;98620.44;4870787;29;20029;-76
2021/10/31 10:07:20;;;;;;;3.53;1.15;;;;;;;12.11;100.00;98631.22;4863057;29;20033;-77
2021/10/31 10:09:50;;;;;;;3.78;1.10;;;;;;;12.08;100.00;98630.75;4876553;29;20037;-76
2021/10/31 10:12:17;;;;;;;5.00;1.30;;;;;;;12.08;100.00;98621.59;4856078;29;20061;-76
2021/10/31 10:14:45;;;;;;;3.60;1.20;;;;;;;12.08;100.00;98616.03;4862027;29;20093;-76
2021/10/31 10:17:13;;;;;;;4.72;1.13;;;;;;;12.07;100.00;98615.22;4850997;29;20066;-76
2021/10/31 10:19:46;;;;;;;5.90;1.40;;;;;;;12.07;100.00;98614.41;4859294;29;20474;-76
2021/10/31 10:22:15;;;;;;;4.40;1.13;;;;;;;12.05;100.00;98628.66;4859663;29;20045;-76
2021/10/31 10:25:01;;;;;;;2.45;0.88;;;;;;;12.05;100.00;98644.56;4865777;29;20081;-76
2021/10/31 10:27:30;;;;;;;3.42;1.00;;;;;;;12.05;100.00;98633.44;4848554;29;20097;-76
2021/10/31 10:29:56;;;;;;;3.05;1.30;;;;;;;12.05;100.00;98639.00;4871225;29;20471;-76
2021/10/31 10:32:26;;;;;;;5.07;1.40;;;;;;;12.03;100.00;98635.75;4866695;29;20056;-76
2021/10/31 10:34:53;;;;;;;3.75;1.40;;;;;;;12.04;100.00;98648.50;4866595;29;20038;-76
2021/10/31 10:37:29;;;;;;;4.32;1.35;;;;;;;12.04;100.00;98642.94;4872559;29;20042;-77
2021/10/31 10:39:58;;;;;;;4.75;1.55;;;;;;;12.04;100.00;98631.81;4862291;29;20065;-77
2021/10/31 10:42:26;;;;;;;4.43;1.15;;;;;;;12.06;100.00;98630.31;4865672;29;20045;-76
2021/10/31 10:44:57;;;;;;;9.13;1.70;;;;;;;12.09;100.00;98639.94;4867041;29;20495;-76
2021/10/31 10:47:24;;;;;;;5.53;1.30;;;;;;;12.13;100.00;98645.59;4856494;29;20040;-76
2021/10/31 10:49:51;;;;;;;3.58;1.33;;;;;;;12.13;100.00;98645.59;4862145;29;20040;-76
2021/10/31 10:52:34;;;;;;;4.68;1.10;;;;;;;12.16;100.00;98651.28;4856177;29;20112;-76
2021/10/31 10:55:05;;;;;;;5.78;1.70;;;;;;;12.22;100.00;98652.66;4875315;29;20033;-76
2021/10/31 10:57:33;;;;;;;5.20;1.25;;;;;;;12.28;100.00;98651.25;4836941;29;20037;-76
2021/10/31 11:00:10;;;;;;;4.95;1.40;;;;;;;12.38;100.00;98657.50;4854036;29;20460;-77
2021/10/31 11:02:36;;;;;;;6.97;1.60;;;;;;;12.46;100.00;98657.38;4869327;29;20045;-76
2021/10/31 11:05:05;;;;;;;7.10;1.40;;;;;;;12.54;100.00;98652.81;4871629;29;20036;-76
2021/10/31 11:07:31;;;;;;;6.65;1.30;;;;;;;12.61;100.00;98655.81;4855858;29;20436;-76
2021/10/31 11:09:57;;;;;;;6.15;1.48;;;;;;;12.72;100.00;98656.94;4875599;29;20474;-76
2021/10/31 11:12:27;;;;;;;7.47;1.35;;;;;;;12.82;100.00;98665.97;4866100;29;20053;-76
2021/10/31 11:14:53;;;;;;;7.50;1.30;;;;;;;12.91;100.00;98655.47;4871818;29;20044;-76
2021/10/31 11:17:20;;;;;;;8.35;1.25;;;;;;;13.03;100.00;98665.75;4876942;29;20058;-76
2021/10/31 11:19:46;;;;;;;7.22;1.48;;;;;;;13.12;100.00;98652.47;4865452;29;20386;-76
2021/10/31 11:22:12;;;;;;;10.13;2.17;;;;;;;13.22;100.00;98653.94;4832212;29;20034;-76
2021/10/31 11:24:37;;;;;;;5.28;1.40;;;;;;;13.31;100.00;98662.97;4853374;29;20061;-76
2021/10/31 11:27:03;;;;;;;9.00;1.50;;;;;;;13.39;100.00;98659.22;4871756;29;20033;-76
2021/10/31 11:29:31;;;;;;;10.80;1.80;;;;;;;13.47;100.00;98657.44;4854556;29;20029;-76